createdAt,value
2022-11-16T00:00:26.451Z,46.78
2022-11-16T00:02:53.133Z,41.67
2022-11-16T00:05:23.056Z,41.58
2022-11-16T00:07:52.248Z,47.42
2022-11-16T00:10:18.892Z,46.63
2022-11-16T00:12:45.531Z,45.15
2022-11-16T00:15:12.121Z,47.80
2022-11-16T00:17:39.192Z,49.60
2022-11-16T00:20:06.514Z,49.35
2022-11-16T00:22:33.145Z,49.65
2022-11-16T00:24:59.776Z,49.15
2022-11-16T00:27:26.485Z,46.60
2022-11-16T00:29:53.561Z,53.60
2022-11-16T00:32:20.214Z,49.58
2022-11-16T00:34:47.015Z,68.72
2022-11-16T00:37:13.622Z,67.18
2022-11-16T00:39:40.263Z,72.25
2022-11-16T00:42:06.905Z,63.65
2022-11-16T00:44:33.615Z,60.25
2022-11-16T00:47:00.230Z,62.30
2022-11-16T00:49:26.921Z,52.92
2022-11-16T00:51:53.921Z,45.00
2022-11-16T00:54:22.287Z,49.35
2022-11-16T00:56:49.616Z,39.58
2022-11-16T00:59:16.560Z,79.70
2022-11-16T01:01:43.304Z,48.20
2022-11-16T01:04:09.996Z,33.95
2022-11-16T01:06:36.661Z,29.70
2022-11-16T01:09:03.492Z,32.35
2022-11-16T01:11:48.707Z,29.90
2022-11-16T01:14:15.486Z,33.13
2022-11-16T01:16:43.336Z,29.88
2022-11-16T01:19:10.303Z,28.55
2022-11-16T01:21:36.959Z,30.45
2022-11-16T01:24:03.979Z,30.15
2022-11-16T01:26:30.649Z,29.67
2022-11-16T01:28:59.647Z,28.67
2022-11-16T01:31:29.750Z,26.15
2022-11-16T01:33:57.438Z,26.63
2022-11-16T01:36:28.628Z,29.83
2022-11-16T01:38:57.853Z,27.15
2022-11-16T01:41:29.059Z,29.88
2022-11-16T01:44:07.431Z,31.98
2022-11-16T01:46:48.949Z,29.52
2022-11-16T01:49:20.821Z,33.13
2022-11-16T01:51:57.138Z,40.28
2022-11-16T01:54:26.394Z,33.00
2022-11-16T01:57:02.777Z,32.75
2022-11-16T01:59:44.344Z,32.72
2022-11-16T02:02:16.187Z,32.40
2022-11-16T02:04:44.419Z,30.75
2022-11-16T02:08:09.522Z,32.20
2022-11-16T02:10:46.971Z,29.08
2022-11-16T02:13:19.797Z,31.88
2022-11-16T02:16:01.946Z,33.35
2022-11-16T02:18:41.330Z,30.05
2022-11-16T02:21:13.750Z,33.35
2022-11-16T02:23:51.204Z,32.72
2022-11-16T02:27:15.286Z,31.92
2022-11-16T02:29:51.539Z,36.92
2022-11-16T02:32:38.177Z,40.08
2022-11-16T02:35:14.890Z,40.40
2022-11-16T02:37:54.536Z,47.47
2022-11-16T02:40:24.398Z,53.37
2022-11-16T02:45:28.303Z,53.88
2022-11-16T02:48:01.510Z,52.63
2022-11-16T02:50:31.200Z,52.08
2022-11-16T02:52:57.873Z,50.40
2022-11-16T02:55:28.896Z,45.08
2022-11-16T02:58:01.064Z,56.70
2022-11-16T03:01:03.258Z,40.67
2022-11-16T03:03:52.514Z,44.13
2022-11-16T03:06:24.792Z,45.08
2022-11-16T03:09:09.230Z,40.83
2022-11-16T03:11:58.952Z,41.60
2022-11-16T03:14:50.446Z,40.03
2022-11-16T03:17:34.578Z,39.83
2022-11-16T03:20:04.513Z,42.35
2022-11-16T03:22:38.538Z,44.22
2022-11-16T03:25:06.657Z,39.10
2022-11-16T03:27:49.972Z,66.88
2022-11-16T03:30:23.978Z,40.78
2022-11-16T03:33:08.254Z,44.15
2022-11-16T03:35:50.360Z,36.08
2022-11-16T03:38:19.685Z,40.47
2022-11-16T03:40:47.819Z,43.72
2022-11-16T03:43:17.483Z,41.13
2022-11-16T03:45:45.685Z,61.88
2022-11-16T03:48:13.041Z,54.20
2022-11-16T03:50:42.462Z,49.45
2022-11-16T03:53:09.775Z,42.67
2022-11-16T03:55:38.169Z,43.70
2022-11-16T03:58:05.526Z,44.15
2022-11-16T04:00:33.026Z,37.17
2022-11-16T04:03:05.632Z,41.75
2022-11-16T04:05:50.873Z,37.25
2022-11-16T04:08:36.905Z,37.75
2022-11-16T04:11:22.916Z,38.47
2022-11-16T04:14:10.268Z,36.13
2022-11-16T04:16:58.637Z,36.00
2022-11-16T04:19:45.026Z,41.78
2022-11-16T04:22:48.385Z,42.95
2022-11-16T04:25:22.268Z,38.50
2022-11-16T04:28:07.952Z,33.55
2022-11-16T04:30:55.512Z,58.47
2022-11-16T04:33:40.888Z,61.70
2022-11-16T04:36:26.844Z,32.92
2022-11-16T04:38:53.757Z,36.60
2022-11-16T04:41:39.030Z,32.50
2022-11-16T04:44:05.792Z,31.55
2022-11-16T04:46:52.661Z,32.83
2022-11-16T04:49:19.458Z,31.42
2022-11-16T04:51:46.793Z,40.90
2022-11-16T04:54:13.826Z,35.90
2022-11-16T04:56:41.416Z,31.98
2022-11-16T04:59:08.262Z,33.33
2022-11-16T05:01:53.472Z,36.40
2022-11-16T05:04:20.302Z,41.95
2022-11-16T05:06:48.969Z,33.10
2022-11-16T05:09:15.949Z,32.45
2022-11-16T05:11:42.692Z,34.63
2022-11-16T05:14:10.806Z,38.58
2022-11-16T05:16:40.066Z,35.08
2022-11-16T05:19:25.309Z,34.75
2022-11-16T05:21:52.361Z,33.88
2022-11-16T05:24:34.555Z,36.97
2022-11-16T05:27:05.366Z,38.55
2022-11-16T05:29:33.154Z,36.30
2022-11-16T05:32:00.591Z,35.42
2022-11-16T05:34:28.055Z,35.95
2022-11-16T05:36:55.537Z,37.38
2022-11-16T05:39:22.619Z,69.43
2022-11-16T05:41:51.805Z,38.00
2022-11-16T05:44:18.702Z,50.95
2022-11-16T05:46:46.304Z,62.70
2022-11-16T05:49:13.768Z,43.15
2022-11-16T05:51:42.760Z,45.00
2022-11-16T05:54:21.678Z,42.45
2022-11-16T05:56:49.570Z,44.25
2022-11-16T05:59:20.121Z,54.60
2022-11-16T06:01:50.426Z,48.70
2022-11-16T06:04:24.003Z,45.05
2022-11-16T06:06:50.911Z,48.33
2022-11-16T06:09:21.929Z,45.40
2022-11-16T06:11:49.640Z,54.22
2022-11-16T06:14:16.400Z,49.65
2022-11-16T06:16:43.551Z,50.08
2022-11-16T06:19:11.060Z,56.05
2022-11-16T06:21:38.109Z,46.35
2022-11-16T06:24:09.531Z,49.78
2022-11-16T06:26:37.291Z,62.63
2022-11-16T06:29:04.973Z,55.38
2022-11-16T06:31:33.292Z,62.55
2022-11-16T06:34:01.880Z,56.95
2022-11-16T06:36:29.745Z,53.85
2022-11-16T06:39:01.062Z,61.05
2022-11-16T06:41:29.638Z,65.18
2022-11-16T06:43:56.491Z,59.17
2022-11-16T06:46:29.526Z,64.95
2022-11-16T06:48:57.078Z,65.20
2022-11-16T06:51:23.723Z,61.35
2022-11-16T06:53:50.647Z,67.47
2022-11-16T06:56:18.512Z,66.75
2022-11-16T06:58:57.276Z,73.20
2022-11-16T07:01:26.136Z,80.85
2022-11-16T07:03:58.402Z,66.82
2022-11-16T07:06:25.962Z,73.60
2022-11-16T07:08:52.987Z,81.25
2022-11-16T07:11:24.366Z,76.65
2022-11-16T07:13:51.817Z,76.20
2022-11-16T07:16:18.479Z,74.00
2022-11-16T07:18:52.126Z,71.95
2022-11-16T07:21:19.464Z,65.57
2022-11-16T07:23:46.176Z,72.22
2022-11-16T07:26:18.122Z,74.93
2022-11-16T07:28:52.968Z,78.88
2022-11-16T07:31:22.135Z,87.88
2022-11-16T07:34:08.818Z,74.50
2022-11-16T07:36:44.016Z,79.88
2022-11-16T07:39:11.044Z,80.25
2022-11-16T07:41:38.630Z,76.30
2022-11-16T07:44:25.776Z,74.20
2022-11-16T07:47:05.396Z,70.63
2022-11-16T07:49:33.748Z,69.35
2022-11-16T07:52:09.079Z,64.18
2022-11-16T07:54:43.764Z,66.22
2022-11-16T07:57:10.916Z,61.65
2022-11-16T07:59:40.532Z,66.25
2022-11-16T08:02:09.055Z,69.65
2022-11-16T08:04:38.785Z,69.85
2022-11-16T08:07:05.795Z,66.82
2022-11-16T08:09:39.565Z,53.38
2022-11-16T08:12:09.967Z,50.08
2022-11-16T08:14:36.724Z,57.40
2022-11-16T08:17:04.960Z,48.85
2022-11-16T08:19:32.133Z,53.75
2022-11-16T08:21:58.964Z,53.65
2022-11-16T08:24:28.722Z,48.13
2022-11-16T08:26:57.188Z,49.72
2022-11-16T08:29:23.912Z,50.50
2022-11-16T08:31:51.750Z,49.75
2022-11-16T08:34:20.117Z,51.85
2022-11-16T08:36:50.270Z,50.90
2022-11-16T08:39:19.158Z,49.58
2022-11-16T08:41:45.854Z,52.08
2022-11-16T08:44:12.895Z,50.17
2022-11-16T08:46:43.406Z,47.45
2022-11-16T08:49:22.593Z,43.95
2022-11-16T08:51:49.339Z,49.03
2022-11-16T08:54:16.030Z,50.05
2022-11-16T08:56:43.856Z,43.78
2022-11-16T08:59:11.307Z,51.25
2022-11-16T09:01:43.233Z,45.60
2022-11-16T09:04:09.872Z,43.30
2022-11-16T09:06:36.875Z,41.60
2022-11-16T09:09:04.248Z,43.95
2022-11-16T09:11:30.877Z,41.95
2022-11-16T09:13:57.645Z,41.75
2022-11-16T09:16:24.792Z,40.97
2022-11-16T09:18:52.254Z,46.22
2022-11-16T09:21:21.334Z,41.85
2022-11-16T09:23:49.000Z,42.40
2022-11-16T09:26:19.149Z,43.35
2022-11-16T09:28:45.831Z,49.35
2022-11-16T09:31:12.549Z,45.72
2022-11-16T09:33:39.279Z,46.80
2022-11-16T09:36:08.152Z,48.72
2022-11-16T09:42:07.340Z,42.83
2022-11-16T09:45:00.486Z,44.38
2022-11-16T09:47:38.918Z,47.30
2022-11-16T09:50:07.371Z,45.45
2022-11-16T09:52:41.931Z,41.10
2022-11-16T09:55:25.783Z,44.97
2022-11-16T09:57:56.093Z,43.85
2022-11-16T10:00:23.807Z,41.00
2022-11-16T10:03:06.788Z,48.35
2022-11-16T10:05:43.543Z,38.78
2022-11-16T10:08:43.174Z,42.25
2022-11-16T10:11:26.117Z,43.75
2022-11-16T10:14:16.989Z,41.85
2022-11-16T10:16:53.766Z,41.85
2022-11-16T10:19:52.359Z,42.90
2022-11-16T10:22:31.322Z,44.50
2022-11-16T10:24:59.201Z,42.80
2022-11-16T10:27:49.729Z,38.30
2022-11-16T10:30:21.821Z,42.60
2022-11-16T10:32:54.682Z,40.58
2022-11-16T10:35:40.013Z,42.05
2022-11-16T10:38:20.240Z,42.97
2022-11-16T10:40:53.319Z,39.53
2022-11-16T10:43:26.296Z,37.13
2022-11-16T10:46:17.862Z,38.17
2022-11-16T10:49:06.269Z,41.20
2022-11-16T10:51:33.343Z,35.72
2022-11-16T10:54:00.255Z,42.47
2022-11-16T10:56:37.333Z,43.05
2022-11-16T10:59:05.652Z,42.40
2022-11-16T11:01:44.024Z,35.17
2022-11-16T11:04:16.864Z,36.38
2022-11-16T11:06:44.719Z,39.08
2022-11-16T11:09:30.502Z,37.00
2022-11-16T11:12:34.431Z,36.13
2022-11-16T11:15:26.331Z,41.25
2022-11-16T11:18:11.833Z,38.78
2022-11-16T11:20:44.671Z,39.58
2022-11-16T11:23:23.800Z,38.95
2022-11-16T11:25:59.075Z,38.08
2022-11-16T11:28:38.414Z,41.30
2022-11-16T11:31:25.707Z,40.92
2022-11-16T11:33:56.353Z,42.72
2022-11-16T11:36:26.735Z,41.50
2022-11-16T11:39:07.487Z,39.85
2022-11-16T11:41:37.208Z,40.92
2022-11-16T11:44:06.897Z,42.17
2022-11-16T11:47:18.297Z,42.53
2022-11-16T11:49:23.131Z,41.28
2022-11-16T11:51:51.663Z,40.95
2022-11-16T11:54:24.283Z,45.08
2022-11-16T11:56:51.082Z,41.42
2022-11-16T11:59:21.938Z,47.05
2022-11-16T12:02:12.458Z,50.80
2022-11-16T12:05:02.779Z,60.38
2022-11-16T12:07:45.063Z,47.53
2022-11-16T12:10:29.977Z,44.50
2022-11-16T12:13:03.462Z,41.33
2022-11-16T12:15:39.647Z,46.25
2022-11-16T12:18:09.475Z,46.08
2022-11-16T12:20:45.129Z,57.30
2022-11-16T12:23:41.971Z,45.50
2022-11-16T12:26:27.824Z,44.80
2022-11-16T12:29:22.681Z,43.40
2022-11-16T12:32:01.501Z,41.83
2022-11-16T12:34:40.615Z,44.15
2022-11-16T12:37:24.788Z,47.50
2022-11-16T12:40:00.935Z,60.40
2022-11-16T12:42:52.053Z,77.00
2022-11-16T12:45:32.569Z,76.65
2022-11-16T12:48:19.677Z,68.82
2022-11-16T12:50:52.161Z,65.03
2022-11-16T12:53:40.304Z,51.55
2022-11-16T12:56:34.353Z,47.10
2022-11-16T12:59:28.763Z,46.45
2022-11-16T13:02:08.537Z,53.08
2022-11-16T13:04:45.619Z,54.60
2022-11-16T13:07:18.400Z,48.33
2022-11-16T13:09:51.325Z,46.67
2022-11-16T13:12:23.599Z,50.28
2022-11-16T13:14:53.873Z,46.58
2022-11-16T13:17:37.676Z,55.10
2022-11-16T13:20:18.475Z,51.35
2022-11-16T13:23:11.180Z,52.33
2022-11-16T13:25:48.916Z,57.47
2022-11-16T13:28:40.059Z,59.95
2022-11-16T13:31:39.642Z,61.15
2022-11-16T13:34:14.782Z,50.03
2022-11-16T13:36:46.205Z,40.08
2022-11-16T13:39:21.916Z,37.90
2022-11-16T13:41:51.775Z,35.53
2022-11-16T13:44:19.977Z,36.83
2022-11-16T13:46:56.534Z,37.20
2022-11-16T13:49:28.604Z,29.65
2022-11-16T13:52:21.987Z,27.02
2022-11-16T13:54:54.386Z,26.45
2022-11-16T13:57:29.957Z,26.20
2022-11-16T14:00:02.666Z,21.98
2022-11-16T14:02:35.165Z,28.17
2022-11-16T14:05:37.115Z,23.48
2022-11-16T14:08:18.977Z,23.10
2022-11-16T14:10:51.501Z,23.42
2022-11-16T14:13:30.285Z,24.52
2022-11-16T14:16:15.368Z,25.20
2022-11-16T14:18:43.673Z,29.38
2022-11-16T14:21:19.494Z,29.15
2022-11-16T14:24:07.672Z,25.55
2022-11-16T14:26:56.595Z,30.10
2022-11-16T14:29:34.998Z,30.83
2022-11-16T14:32:04.318Z,27.60
2022-11-16T14:34:42.333Z,26.75
2022-11-16T14:37:15.044Z,27.70
2022-11-16T14:39:43.661Z,30.17
2022-11-16T14:42:48.103Z,29.42
2022-11-16T14:48:01.542Z,34.53
2022-11-16T14:50:30.204Z,33.95
2022-11-16T14:53:02.807Z,33.22
2022-11-16T14:55:29.548Z,29.75
2022-11-16T14:58:22.221Z,32.67
2022-11-16T15:00:58.187Z,28.80
2022-11-16T15:03:28.526Z,33.28
2022-11-16T15:06:03.361Z,33.72
2022-11-16T15:08:38.610Z,34.60
2022-11-16T15:11:20.516Z,34.65
2022-11-16T15:13:47.944Z,37.63
2022-11-16T15:16:19.828Z,41.55
2022-11-16T15:18:57.756Z,43.28
2022-11-16T15:21:25.126Z,45.05
2022-11-16T15:24:08.593Z,40.78
2022-11-16T15:26:39.107Z,40.95
2022-11-16T15:29:05.826Z,39.05
2022-11-16T15:31:34.433Z,37.22
2022-11-16T15:34:01.592Z,39.90
2022-11-16T15:36:38.143Z,37.33
2022-11-16T15:39:06.132Z,43.83
2022-11-16T15:41:34.020Z,44.03
2022-11-16T15:44:13.990Z,46.95
2022-11-16T15:46:44.593Z,45.45
2022-11-16T15:49:18.538Z,47.97
2022-11-16T15:51:45.240Z,45.13
2022-11-16T15:54:22.424Z,46.55
2022-11-16T15:56:50.142Z,46.72
2022-11-16T15:59:32.716Z,49.28
2022-11-16T16:01:59.534Z,50.40
2022-11-16T16:04:26.726Z,45.28
2022-11-16T16:07:05.047Z,49.22
2022-11-16T16:09:34.228Z,50.70
2022-11-16T16:12:17.787Z,46.40
2022-11-16T16:14:45.084Z,49.50
2022-11-16T16:17:21.441Z,52.63
2022-11-16T16:19:55.874Z,46.30
2022-11-16T16:22:33.112Z,45.35
2022-11-16T16:25:01.680Z,47.03
2022-11-16T16:27:30.780Z,51.00
2022-11-16T16:30:02.213Z,74.20
2022-11-16T16:32:34.242Z,104.63
2022-11-16T16:35:03.270Z,80.72
2022-11-16T16:37:31.896Z,67.38
2022-11-16T16:39:59.747Z,65.32
2022-11-16T16:42:26.430Z,55.92
2022-11-16T16:44:53.877Z,47.60
2022-11-16T16:47:20.906Z,51.00
2022-11-16T16:49:49.034Z,53.17
2022-11-16T16:52:15.924Z,48.75
2022-11-16T16:54:42.719Z,50.58
2022-11-16T16:57:17.029Z,48.70
2022-11-16T16:59:48.434Z,43.90
2022-11-16T17:02:16.606Z,44.42
2022-11-16T17:04:49.470Z,45.80
2022-11-16T17:07:16.511Z,41.90
2022-11-16T17:09:43.650Z,47.60
2022-11-16T17:12:11.063Z,48.15
2022-11-16T17:14:37.839Z,46.05
2022-11-16T17:17:04.527Z,48.03
2022-11-16T17:19:31.107Z,44.38
2022-11-16T17:21:58.402Z,44.35
2022-11-16T17:24:25.075Z,45.80
2022-11-16T17:26:51.774Z,43.47
2022-11-16T17:29:18.400Z,43.38
2022-11-16T17:31:47.299Z,46.67
2022-11-16T17:34:14.374Z,39.92
2022-11-16T17:36:41.976Z,41.35
2022-11-16T17:39:08.785Z,37.45
2022-11-16T17:41:35.548Z,38.65
2022-11-16T17:44:02.288Z,42.95
2022-11-16T17:46:29.200Z,42.03
2022-11-16T17:48:56.448Z,41.53
2022-11-16T17:51:25.277Z,43.67
2022-11-16T17:53:52.614Z,43.60
2022-11-16T17:56:23.306Z,39.92
2022-11-16T17:58:55.017Z,38.97
2022-11-16T18:01:22.670Z,44.75
2022-11-16T18:03:49.357Z,42.22
2022-11-16T18:06:21.363Z,42.55
2022-11-16T18:08:48.753Z,40.20
2022-11-16T18:11:23.541Z,40.70
2022-11-16T18:13:58.196Z,44.80
2022-11-16T18:16:28.442Z,43.03
2022-11-16T18:18:57.725Z,39.88
2022-11-16T18:21:25.051Z,42.13
2022-11-16T18:23:52.084Z,41.10
2022-11-16T18:26:21.162Z,46.25
2022-11-16T18:28:48.629Z,53.47
2022-11-16T18:31:18.490Z,49.95
2022-11-16T18:33:45.703Z,57.03
2022-11-16T18:36:12.647Z,49.20
2022-11-16T18:38:39.506Z,50.92
2022-11-16T18:41:12.079Z,55.38
2022-11-16T18:43:47.291Z,51.28
2022-11-16T18:46:14.017Z,51.08
2022-11-16T18:48:42.788Z,53.10
2022-11-16T18:51:10.895Z,48.65
2022-11-16T18:53:37.963Z,51.90
2022-11-16T18:56:05.308Z,58.53
2022-11-16T19:01:22.295Z,52.47
2022-11-16T19:03:49.248Z,52.95
2022-11-16T19:06:17.732Z,50.80
2022-11-16T19:08:47.789Z,47.17
2022-11-16T19:11:18.914Z,46.70
2022-11-16T19:13:45.572Z,49.80
2022-11-16T19:16:13.454Z,46.10
2022-11-16T19:18:40.688Z,45.88
2022-11-16T19:21:08.764Z,44.70
2022-11-16T19:23:40.119Z,48.45
2022-11-16T19:26:07.364Z,44.03
2022-11-16T19:28:40.813Z,51.47
2022-11-16T19:31:14.150Z,48.15
2022-11-16T19:33:41.346Z,47.88
2022-11-16T19:36:19.157Z,44.67
2022-11-16T19:38:47.385Z,40.60
2022-11-16T19:41:15.751Z,42.72
2022-11-16T19:43:42.822Z,38.08
2022-11-16T19:46:11.756Z,36.50
2022-11-16T19:48:39.312Z,34.50
2022-11-16T19:51:10.849Z,38.80
2022-11-16T19:53:38.413Z,33.42
2022-11-16T19:56:06.881Z,35.97
2022-11-16T19:58:38.349Z,38.42
2022-11-16T20:01:07.793Z,35.03
2022-11-16T20:03:34.989Z,32.55
2022-11-16T20:06:10.668Z,36.05
2022-11-16T20:08:38.950Z,38.03
2022-11-16T20:11:17.562Z,40.88
2022-11-16T20:13:44.260Z,36.90
2022-11-16T20:16:12.309Z,37.22
2022-11-16T20:18:40.662Z,36.05
2022-11-16T20:21:08.675Z,35.40
2022-11-16T20:23:36.110Z,33.72
2022-11-16T20:26:08.281Z,39.35
2022-11-16T20:28:39.937Z,34.85
2022-11-16T20:31:17.624Z,34.47
2022-11-16T20:33:59.141Z,55.38
2022-11-16T20:36:28.078Z,46.95
2022-11-16T20:38:56.488Z,41.03
2022-11-16T20:41:26.142Z,35.38
2022-11-16T20:43:54.944Z,43.53
2022-11-16T20:46:23.783Z,41.35
2022-11-16T20:48:50.516Z,44.40
2022-11-16T20:51:19.505Z,45.30
2022-11-16T20:53:47.981Z,31.33
2022-11-16T20:56:15.998Z,39.58
2022-11-16T20:58:43.259Z,44.17
2022-11-16T21:01:18.963Z,37.38
2022-11-16T21:03:46.437Z,41.72
2022-11-16T21:06:14.297Z,42.45
2022-11-16T21:08:41.729Z,37.88
2022-11-16T21:11:13.773Z,37.95
2022-11-16T21:13:59.556Z,39.50
2022-11-16T21:16:26.782Z,40.10
2022-11-16T21:18:54.772Z,39.28
2022-11-16T21:21:22.074Z,50.67
2022-11-16T21:23:51.837Z,44.95
2022-11-16T21:26:21.498Z,36.72
2022-11-16T21:28:48.218Z,37.63
2022-11-16T21:31:18.650Z,32.72
2022-11-16T21:33:46.029Z,38.28
2022-11-16T21:36:17.966Z,36.33
2022-11-16T21:38:44.899Z,38.00
2022-11-16T21:41:12.776Z,38.55
2022-11-16T21:43:42.696Z,41.42
2022-11-16T21:46:14.848Z,48.97
2022-11-16T21:48:42.046Z,40.58
2022-11-16T21:51:14.236Z,49.00
2022-11-16T21:53:41.040Z,49.75
2022-11-16T21:56:12.485Z,48.83
2022-11-16T21:58:40.123Z,53.13
2022-11-16T22:01:06.941Z,45.35
2022-11-16T22:03:34.426Z,47.58
2022-11-16T22:06:22.433Z,47.15
2022-11-16T22:08:49.494Z,43.97
2022-11-16T22:11:17.045Z,50.55
2022-11-16T22:13:44.217Z,44.97
2022-11-16T22:16:12.961Z,49.35
2022-11-16T22:18:39.691Z,47.70
2022-11-16T22:21:07.439Z,52.83
2022-11-16T22:23:35.071Z,53.22
2022-11-16T22:26:10.226Z,58.70
2022-11-16T22:28:37.649Z,55.25
2022-11-16T22:31:06.698Z,55.15
2022-11-16T22:33:34.462Z,64.30
2022-11-16T22:36:01.503Z,57.63
2022-11-16T22:38:28.384Z,59.33
2022-11-16T22:41:00.491Z,63.17
2022-11-16T22:43:34.261Z,61.53
2022-11-16T22:46:05.533Z,66.07
2022-11-16T22:48:37.420Z,65.88
2022-11-16T22:51:15.261Z,59.80
2022-11-16T22:53:42.382Z,60.47
2022-11-16T22:56:10.216Z,63.25
2022-11-16T22:58:38.263Z,58.30
2022-11-16T23:01:11.421Z,60.00
2022-11-16T23:03:38.836Z,64.63
2022-11-16T23:06:09.154Z,58.50
2022-11-16T23:08:37.562Z,59.85
2022-11-16T23:11:30.097Z,66.45
2022-11-16T23:14:15.812Z,62.55
2022-11-16T23:16:46.647Z,65.35
2022-11-16T23:19:36.719Z,60.38
2022-11-16T23:25:10.243Z,54.85
2022-11-16T23:27:49.149Z,59.80
2022-11-16T23:30:16.693Z,53.85
2022-11-16T23:32:43.530Z,58.42
2022-11-16T23:35:11.160Z,60.28
2022-11-16T23:37:59.165Z,57.65
2022-11-16T23:40:34.448Z,47.35
2022-11-16T23:43:20.458Z,48.10
2022-11-16T23:45:47.501Z,50.03
2022-11-16T23:48:16.280Z,50.70
2022-11-16T23:50:44.256Z,48.45
2022-11-16T23:53:20.588Z,46.10
2022-11-16T23:55:47.677Z,51.53
2022-11-16T23:58:14.972Z,47.15
